Time;durP1;ratioP1;P1;durP2;ratioP2;P2;SDS_P1;SDS_P2;PMS_P1;PMS_P2;Temp;Humidity;BMP_temperature;BMP_pressure;BME280_temperature;BME280_humidity;BME280_pressure;Samples;Min_cycle;Max_cycle;Signal;HPM_P1;HPM_P2
2023/08/24 00:00:54;;;;;;;6.65;3.13;;;16.20;99.90;;;;;;5072622;28;20044;-75
2023/08/24 00:03:21;;;;;;;6.68;3.20;;;16.20;99.90;;;;;;5072472;28;20112;-75
2023/08/24 00:05:47;;;;;;;4.70;3.42;;;16.20;99.90;;;;;;5072271;28;20398;-76
2023/08/24 00:08:12;;;;;;;6.55;3.70;;;16.20;99.90;;;;;;5070699;28;20448;-75
2023/08/24 00:10:38;;;;;;;4.68;3.08;;;16.20;99.90;;;;;;5076900;28;20071;-75
2023/08/24 00:13:04;;;;;;;3.33;2.53;;;16.20;99.90;;;;;;5076021;28;20040;-75
2023/08/24 00:15:30;;;;;;;3.65;2.50;;;16.10;99.90;;;;;;5072039;28;20115;-75
2023/08/24 00:17:56;;;;;;;4.43;3.15;;;16.00;99.90;;;;;;5072716;28;20513;-75
2023/08/24 00:20:22;;;;;;;3.67;2.78;;;15.90;99.90;;;;;;5071956;28;20078;-75
2023/08/24 00:22:48;;;;;;;5.80;3.33;;;15.80;99.90;;;;;;5070836;28;20044;-75
2023/08/24 00:25:14;;;;;;;5.57;3.50;;;15.80;99.90;;;;;;5073431;28;20032;-75
2023/08/24 00:27:40;;;;;;;4.75;3.22;;;15.80;99.90;;;;;;5071899;28;20039;-75
2023/08/24 00:30:07;;;;;;;3.40;2.72;;;15.90;99.90;;;;;;5073724;28;20031;-75
2023/08/24 00:32:36;;;;;;;4.78;2.33;;;16.00;99.90;;;;;;5055303;28;20514;-75
2023/08/24 00:35:04;;;;;;;3.47;2.03;;;16.00;99.90;;;;;;5076322;28;20040;-75
2023/08/24 00:37:29;;;;;;;3.78;1.90;;;16.10;99.90;;;;;;5071459;28;20035;-75
2023/08/24 00:39:55;;;;;;;4.40;2.22;;;16.10;99.90;;;;;;5070953;28;20032;-76
2023/08/24 00:42:22;;;;;;;6.75;3.28;;;16.10;99.90;;;;;;5071596;28;20116;-76
2023/08/24 00:44:48;;;;;;;5.13;2.88;;;16.10;99.90;;;;;;5071513;28;21214;-76
2023/08/24 00:47:14;;;;;;;4.15;2.50;;;16.20;99.90;;;;;;5072243;28;20036;-75
2023/08/24 00:49:39;;;;;;;3.08;2.28;;;16.20;99.90;;;;;;5071448;28;20434;-76
2023/08/24 00:52:06;;;;;;;2.78;2.15;;;16.20;99.90;;;;;;5092460;28;20525;-75
2023/08/24 00:54:32;;;;;;;3.30;1.70;;;16.20;99.90;;;;;;5080806;28;20032;-75
2023/08/24 00:56:57;;;;;;;3.67;2.33;;;16.20;99.90;;;;;;5072206;28;20479;-76
2023/08/24 00:59:23;;;;;;;4.60;3.08;;;16.20;99.90;;;;;;5073809;28;20064;-76
2023/08/24 01:01:50;;;;;;;3.60;2.60;;;16.20;99.90;;;;;;5054105;28;20098;-76
2023/08/24 01:04:15;;;;;;;3.13;2.60;;;16.10;99.90;;;;;;5071107;28;20154;-75
2023/08/24 01:06:41;;;;;;;3.83;2.10;;;16.10;99.90;;;;;;5072427;28;20123;-75
2023/08/24 01:09:07;;;;;;;2.42;1.80;;;16.10;99.90;;;;;;5071181;28;20514;-75
2023/08/24 01:11:59;;;;;;;3.25;1.80;;;16.10;99.90;;;;;;5076732;28;20136;-75
2023/08/24 01:14:50;;;;;;;2.30;1.60;;;16.10;99.90;;;;;;5071559;28;20046;-75
2023/08/24 01:17:20;;;;;;;3.92;1.60;;;16.00;99.90;;;;;;5053452;28;20059;-76
2023/08/24 01:19:46;;;;;;;2.55;1.50;;;16.00;99.90;;;;;;5068407;28;20118;-76
2023/08/24 01:22:35;;;;;;;3.50;1.63;;;15.90;99.90;;;;;;5072022;28;20060;-76
2023/08/24 01:25:17;;;;;;;3.92;1.50;;;15.90;99.90;;;;;;5073587;28;20380;-76
2023/08/24 01:27:43;;;;;;;2.97;1.30;;;15.90;99.90;;;;;;5072426;28;20047;-76
2023/08/24 01:30:09;;;;;;;2.63;1.50;;;15.80;99.90;;;;;;5070841;28;20050;-76
2023/08/24 01:32:36;;;;;;;2.65;1.48;;;15.80;99.90;;;;;;5070562;28;20032;-76
2023/08/24 01:35:08;;;;;;;3.08;1.40;;;15.80;99.90;;;;;;5074361;28;20434;-75
2023/08/24 01:37:35;;;;;;;3.15;1.70;;;15.70;99.90;;;;;;5075808;28;20396;-75
2023/08/24 01:40:13;;;;;;;1.80;1.52;;;15.80;99.90;;;;;;5066260;28;20059;-76
2023/08/24 01:42:53;;;;;;;5.15;1.65;;;15.80;99.90;;;;;;5065430;28;20037;-75
2023/08/24 01:45:22;;;;;;;4.18;1.60;;;15.80;99.90;;;;;;5064926;28;20036;-75
2023/08/24 01:47:49;;;;;;;5.13;1.85;;;15.80;99.90;;;;;;5071275;28;20078;-75
2023/08/24 01:50:15;;;;;;;2.63;1.83;;;15.80;99.90;;;;;;5070499;28;20048;-76
2023/08/24 01:52:42;;;;;;;3.78;2.10;;;15.80;99.90;;;;;;5066792;28;20061;-76
2023/08/24 01:55:08;;;;;;;5.32;2.10;;;15.80;99.90;;;;;;5068911;28;20050;-76
2023/08/24 01:57:33;;;;;;;2.25;1.65;;;15.80;99.90;;;;;;5070508;28;20122;-76
2023/08/24 01:59:59;;;;;;;3.20;1.98;;;15.80;99.90;;;;;;5061157;28;20162;-75
2023/08/24 02:02:24;;;;;;;3.47;2.10;;;15.80;99.90;;;;;;5068457;28;20533;-76
2023/08/24 02:04:50;;;;;;;2.90;1.90;;;15.80;99.90;;;;;;5069905;28;20044;-76
2023/08/24 02:07:16;;;;;;;3.00;2.10;;;15.80;99.90;;;;;;5074762;28;20034;-76
2023/08/24 02:09:41;;;;;;;3.55;1.80;;;15.80;99.90;;;;;;5068043;28;20032;-75
2023/08/24 02:12:07;;;;;;;3.55;2.20;;;15.80;99.90;;;;;;5057105;28;20514;-76
2023/08/24 02:14:33;;;;;;;4.57;2.78;;;15.90;99.90;;;;;;5063977;28;20090;-76
2023/08/24 02:16:58;;;;;;;3.40;2.10;;;15.80;99.90;;;;;;5077891;28;20035;-76
2023/08/24 02:19:24;;;;;;;3.97;2.60;;;15.90;99.90;;;;;;5067298;28;20040;-75
2023/08/24 02:21:49;;;;;;;4.20;2.60;;;15.80;99.90;;;;;;5065024;28;20044;-76
2023/08/24 02:24:15;;;;;;;2.85;1.98;;;15.80;99.90;;;;;;5073163;28;20047;-76
2023/08/24 02:26:40;;;;;;;2.40;2.17;;;15.70;99.90;;;;;;5076747;28;20036;-77
2023/08/24 02:29:06;;;;;;;3.58;2.08;;;15.70;99.90;;;;;;5064188;28;20044;-76
2023/08/24 02:31:32;;;;;;;2.65;2.10;;;15.70;99.90;;;;;;5065337;28;20040;-76
2023/08/24 02:33:57;;;;;;;3.88;2.42;;;15.70;99.90;;;;;;5074450;28;20048;-76
2023/08/24 02:36:23;;;;;;;5.65;2.20;;;15.80;99.90;;;;;;5064607;28;20035;-76
2023/08/24 02:38:48;;;;;;;3.15;2.20;;;15.80;99.90;;;;;;5064419;28;20495;-76
2023/08/24 02:41:14;;;;;;;2.40;2.20;;;15.90;99.90;;;;;;5065383;28;20039;-76
2023/08/24 02:43:40;;;;;;;5.53;2.60;;;15.90;99.90;;;;;;5072736;28;20044;-76
2023/08/24 02:46:08;;;;;;;4.72;2.50;;;15.90;99.90;;;;;;5071500;28;20040;-77
2023/08/24 02:48:34;;;;;;;3.58;2.63;;;15.90;99.90;;;;;;5067316;28;20125;-76
2023/08/24 02:51:00;;;;;;;4.45;3.08;;;15.90;99.90;;;;;;5060409;28;20511;-76
2023/08/24 02:53:27;;;;;;;6.28;3.95;;;16.00;99.90;;;;;;5066175;28;20521;-76
2023/08/24 02:55:53;;;;;;;5.53;3.80;;;15.90;99.90;;;;;;5085286;28;20050;-76
2023/08/24 02:58:19;;;;;;;5.40;3.50;;;16.00;99.90;;;;;;5067779;28;20038;-75
2023/08/24 03:00:45;;;;;;;6.30;3.63;;;16.00;99.90;;;;;;5066653;28;20043;-76
2023/08/24 03:03:10;;;;;;;6.88;3.83;;;16.00;99.90;;;;;;5086027;28;20487;-76
2023/08/24 03:05:36;;;;;;;6.63;3.60;;;16.00;99.90;;;;;;5066226;28;20101;-76
2023/08/24 03:08:01;;;;;;;5.07;3.50;;;16.00;99.90;;;;;;5072259;28;20066;-76
2023/08/24 03:10:27;;;;;;;8.02;4.45;;;16.10;99.90;;;;;;5065630;28;20047;-76
2023/08/24 03:12:52;;;;;;;9.00;4.95;;;16.10;99.90;;;;;;5065319;28;20077;-76
2023/08/24 03:15:18;;;;;;;5.82;4.57;;;16.10;99.90;;;;;;5063979;28;20050;-76
2023/08/24 03:17:44;;;;;;;9.07;5.30;;;16.10;99.90;;;;;;5066044;28;20036;-76
2023/08/24 03:20:10;;;;;;;8.55;5.43;;;16.10;99.90;;;;;;5088374;28;20437;-76
2023/08/24 03:22:36;;;;;;;8.60;5.20;;;16.10;99.90;;;;;;5070582;28;20082;-76
2023/08/24 03:25:02;;;;;;;9.85;5.32;;;16.10;99.90;;;;;;5074797;28;20075;-76
2023/08/24 03:27:28;;;;;;;10.25;5.32;;;16.10;99.90;;;;;;5084341;28;20032;-76
2023/08/24 03:29:54;;;;;;;7.57;5.63;;;16.00;99.90;;;;;;5062722;28;20039;-76
2023/08/24 03:32:19;;;;;;;7.10;5.18;;;16.00;99.90;;;;;;5073547;28;20119;-76
2023/08/24 03:34:45;;;;;;;8.10;4.60;;;16.00;99.90;;;;;;5073189;28;20080;-76
2023/08/24 03:37:11;;;;;;;7.40;5.20;;;15.90;99.90;;;;;;5061367;28;20038;-76
2023/08/24 03:39:40;;;;;;;9.07;4.97;;;16.00;99.90;;;;;;5072215;28;20040;-76
2023/08/24 03:42:06;;;;;;;9.90;5.63;;;15.90;99.90;;;;;;5082562;28;20372;-76
2023/08/24 03:44:32;;;;;;;8.02;5.00;;;15.90;99.90;;;;;;5063189;28;20101;-76
2023/08/24 03:46:58;;;;;;;8.95;5.53;;;16.00;99.90;;;;;;5068874;28;20055;-76
2023/08/24 03:49:23;;;;;;;7.13;4.80;;;15.90;99.90;;;;;;5064386;28;20040;-76
2023/08/24 03:51:49;;;;;;;7.95;4.57;;;15.90;99.90;;;;;;5070754;28;20047;-76
2023/08/24 03:54:14;;;;;;;9.73;5.65;;;15.90;99.90;;;;;;5074136;28;20043;-76
2023/08/24 03:56:40;;;;;;;8.25;5.40;;;15.90;99.90;;;;;;5072587;28;20415;-76
2023/08/24 03:59:05;;;;;;;7.68;5.40;;;15.90;99.90;;;;;;5069330;28;20036;-76
2023/08/24 04:01:31;;;;;;;7.47;4.45;;;15.80;99.90;;;;;;5060062;28;20458;-76
2023/08/24 04:03:57;;;;;;;6.55;5.13;;;15.80;99.90;;;;;;5068916;28;20616;-76
2023/08/24 04:06:23;;;;;;;7.32;5.20;;;15.90;99.90;;;;;;5064303;28;20500;-75
2023/08/24 04:08:49;;;;;;;6.65;4.60;;;15.90;99.90;;;;;;5052596;28;20041;-76
2023/08/24 04:11:14;;;;;;;9.10;5.20;;;15.90;99.90;;;;;;5068706;28;20040;-76
2023/08/24 04:13:40;;;;;;;11.18;5.57;;;15.90;99.90;;;;;;5066966;28;20044;-76
2023/08/24 04:16:06;;;;;;;9.85;5.18;;;15.90;99.90;;;;;;5066780;28;20024;-76
2023/08/24 04:18:31;;;;;;;7.20;5.72;;;16.00;99.90;;;;;;5069115;28;20501;-76
2023/08/24 04:20:57;;;;;;;7.20;5.10;;;15.90;99.90;;;;;;5054069;28;20043;-76
2023/08/24 04:23:26;;;;;;;8.40;5.18;;;15.90;99.90;;;;;;5068993;28;20035;-76
2023/08/24 04:25:53;;;;;;;6.97;4.78;;;15.90;99.90;;;;;;5058878;28;20384;-76
2023/08/24 04:28:19;;;;;;;7.68;5.65;;;15.90;99.90;;;;;;5072719;28;20047;-76
2023/08/24 04:30:55;;;;;;;8.13;4.82;;;15.90;99.90;;;;;;5066128;28;20040;-77
2023/08/24 04:33:21;;;;;;;7.78;5.28;;;15.90;99.90;;;;;;5067325;28;20119;-76
2023/08/24 04:35:48;;;;;;;7.60;5.47;;;15.90;99.90;;;;;;5078471;28;20570;-76
2023/08/24 04:38:15;;;;;;;8.10;5.43;;;15.80;99.90;;;;;;5070323;28;20119;-76
2023/08/24 04:40:50;;;;;;;6.85;5.32;;;15.80;99.90;;;;;;5067184;28;20039;-76
2023/08/24 04:43:15;;;;;;;7.25;5.60;;;15.80;99.90;;;;;;5060137;28;20372;-77
2023/08/24 04:45:41;;;;;;;6.78;5.00;;;15.80;99.90;;;;;;5067464;28;20118;-76
2023/08/24 04:48:06;;;;;;;8.30;5.88;;;15.70;99.90;;;;;;5080087;28;20047;-76
2023/08/24 04:50:32;;;;;;;6.15;5.18;;;15.70;99.90;;;;;;5060203;28;20040;-76
2023/08/24 04:52:57;;;;;;;7.00;5.82;;;15.60;99.90;;;;;;5088538;28;20403;-76
2023/08/24 04:55:23;;;;;;;7.50;5.50;;;15.60;99.90;;;;;;5069244;28;20333;-76
2023/08/24 04:57:48;;;;;;;8.38;5.40;;;15.60;99.90;;;;;;5066389;28;20036;-76
2023/08/24 05:00:16;;;;;;;7.55;5.57;;;15.60;99.90;;;;;;5062059;28;20068;-76
2023/08/24 05:02:42;;;;;;;9.52;5.95;;;15.60;99.90;;;;;;5064314;28;20059;-76
2023/08/24 05:05:10;;;;;;;8.52;5.68;;;15.60;99.90;;;;;;5063054;28;20036;-76
2023/08/24 05:07:37;;;;;;;7.18;5.00;;;15.60;99.90;;;;;;5076528;28;20238;-76
2023/08/24 05:10:03;;;;;;;7.68;5.70;;;15.70;99.90;;;;;;5067244;28;20055;-76
2023/08/24 05:12:29;;;;;;;8.65;5.60;;;15.70;99.90;;;;;;5072566;28;20033;-76
2023/08/24 05:14:55;;;;;;;8.90;5.50;;;15.70;99.90;;;;;;5068788;28;20047;-76
2023/08/24 05:17:21;;;;;;;8.63;5.80;;;15.80;99.90;;;;;;5069451;28;20036;-76
2023/08/24 05:19:52;;;;;;;6.45;4.75;;;15.80;99.90;;;;;;5069628;28;20044;-77
2023/08/24 05:22:17;;;;;;;6.25;4.97;;;15.80;99.90;;;;;;5066589;28;20384;-77
2023/08/24 05:24:43;;;;;;;7.57;5.40;;;15.80;99.90;;;;;;5072086;28;20050;-77
2023/08/24 05:27:08;;;;;;;9.35;5.05;;;15.80;99.90;;;;;;5070165;28;20093;-76
2023/08/24 05:29:33;;;;;;;13.05;5.50;;;15.80;99.90;;;;;;5080372;28;20141;-76
2023/08/24 05:31:59;;;;;;;7.88;5.75;;;15.80;99.90;;;;;;5075148;28;20068;-76
2023/08/24 05:34:24;;;;;;;10.02;5.78;;;15.80;99.90;;;;;;5071898;28;20450;-77
2023/08/24 05:36:50;;;;;;;8.73;5.05;;;15.80;99.90;;;;;;5071515;28;20517;-77
2023/08/24 05:39:16;;;;;;;10.07;5.65;;;15.90;99.90;;;;;;5072190;28;20031;-76
2023/08/24 05:41:41;;;;;;;10.77;5.38;;;16.00;99.90;;;;;;5074280;28;20130;-76
2023/08/24 05:44:07;;;;;;;9.40;6.45;;;16.10;99.90;;;;;;5075910;28;20159;-76
2023/08/24 05:46:33;;;;;;;7.75;5.57;;;16.20;99.90;;;;;;5075889;28;20052;-77
2023/08/24 05:48:59;;;;;;;9.43;6.25;;;16.30;99.90;;;;;;5075845;28;20515;-77
2023/08/24 05:51:25;;;;;;;9.60;6.40;;;16.40;99.90;;;;;;5094062;28;20048;-77
2023/08/24 05:53:55;;;;;;;11.77;6.63;;;16.50;99.90;;;;;;5076030;28;20042;-77
2023/08/24 05:56:21;;;;;;;11.25;6.15;;;16.60;99.90;;;;;;5075853;28;20494;-76
2023/08/24 05:58:47;;;;;;;10.88;6.50;;;16.70;99.90;;;;;;5077376;28;20538;-77
2023/08/24 06:01:13;;;;;;;10.23;6.30;;;16.80;99.90;;;;;;5074944;28;20080;-77
2023/08/24 06:03:38;;;;;;;11.73;6.85;;;16.90;99.90;;;;;;5075277;28;20079;-76
2023/08/24 06:06:04;;;;;;;11.43;6.13;;;16.90;99.90;;;;;;5075277;28;20123;-77
2023/08/24 06:08:30;;;;;;;10.05;6.30;;;17.00;99.90;;;;;;5074611;28;20032;-76
2023/08/24 06:10:57;;;;;;;11.30;6.38;;;17.10;99.90;;;;;;5074334;28;20047;-76
2023/08/24 06:13:22;;;;;;;9.95;6.13;;;17.20;99.90;;;;;;5057072;28;20028;-76
2023/08/24 06:15:48;;;;;;;11.88;6.38;;;17.30;99.90;;;;;;5075853;28;20055;-77
2023/08/24 06:18:13;;;;;;;10.18;6.25;;;17.40;99.90;;;;;;5075610;28;20042;-77
2023/08/24 06:20:39;;;;;;;11.30;6.75;;;17.50;99.90;;;;;;5074972;28;20036;-76
2023/08/24 06:23:05;;;;;;;15.38;6.60;;;17.60;99.90;;;;;;5073288;28;20093;-76
2023/08/24 06:25:31;;;;;;;10.50;6.15;;;17.70;99.90;;;;;;5069293;28;20039;-77
2023/08/24 06:27:58;;;;;;;8.43;6.10;;;17.70;99.90;;;;;;5068927;28;20494;-77
2023/08/24 06:30:25;;;;;;;9.27;5.45;;;17.70;99.90;;;;;;5059119;28;20040;-76
2023/08/24 06:32:50;;;;;;;9.15;5.50;;;17.90;99.90;;;;;;5058643;28;20513;-77
2023/08/24 06:35:16;;;;;;;7.78;5.40;;;18.00;99.90;;;;;;5095218;28;20032;-77
2023/08/24 06:37:43;;;;;;;11.80;6.25;;;18.10;99.90;;;;;;5075557;28;20089;-77
2023/08/24 06:40:09;;;;;;;8.38;5.57;;;18.10;99.90;;;;;;5072807;28;20495;-77
2023/08/24 06:42:34;;;;;;;8.25;5.50;;;18.20;99.90;;;;;;5069549;28;20101;-77
2023/08/24 06:45:00;;;;;;;7.68;5.00;;;18.30;99.90;;;;;;5073375;28;20040;-76
2023/08/24 06:47:25;;;;;;;8.38;4.70;;;18.40;99.90;;;;;;5076867;28;20090;-77
2023/08/24 06:49:51;;;;;;;8.02;4.60;;;18.50;99.90;;;;;;5073903;28;20047;-76
2023/08/24 06:52:17;;;;;;;8.02;4.05;;;18.60;99.90;;;;;;5070950;28;20538;-75
2023/08/24 06:54:42;;;;;;;9.77;4.20;;;18.70;99.90;;;;;;5087040;28;20037;-76
2023/08/24 06:57:08;;;;;;;7.53;3.97;;;18.80;99.90;;;;;;5066188;28;20522;-75
2023/08/24 06:59:33;;;;;;;7.63;3.50;;;18.80;99.90;;;;;;5075354;28;20529;-77
2023/08/24 07:01:59;;;;;;;9.07;4.22;;;19.00;99.90;;;;;;5058555;28;20045;-74
2023/08/24 07:04:26;;;;;;;7.88;3.60;;;19.00;99.90;;;;;;5038345;28;20299;-75
2023/08/24 07:06:52;;;;;;;6.38;3.15;;;19.10;99.90;;;;;;5070781;28;20068;-74
2023/08/24 07:09:19;;;;;;;4.75;2.53;;;19.20;99.90;;;;;;5074684;28;20051;-74
2023/08/24 07:11:44;;;;;;;6.80;2.88;;;19.30;99.90;;;;;;5074756;28;20533;-76
2023/08/24 07:14:10;;;;;;;6.40;2.47;;;19.30;99.90;;;;;;5074582;28;20097;-76
2023/08/24 07:16:35;;;;;;;3.58;2.40;;;19.50;99.90;;;;;;5055814;28;20036;-77
2023/08/24 07:19:02;;;;;;;8.73;2.95;;;19.60;99.90;;;;;;5054633;28;20517;-78
2023/08/24 07:21:27;;;;;;;5.50;2.38;;;19.70;99.90;;;;;;5054718;28;20536;-77
2023/08/24 07:23:53;;;;;;;8.05;2.70;;;19.80;99.90;;;;;;5054912;28;20266;-75
2023/08/24 07:26:19;;;;;;;4.25;2.42;;;19.90;99.90;;;;;;5055284;28;20067;-76
2023/08/24 07:28:44;;;;;;;7.55;2.92;;;20.00;99.90;;;;;;5059512;28;20564;-75
2023/08/24 07:31:11;;;;;;;6.03;2.65;;;20.10;99.90;;;;;;5071820;28;20127;-76
2023/08/24 07:33:38;;;;;;;6.15;2.70;;;20.30;99.90;;;;;;5073522;28;20058;-75
2023/08/24 07:36:05;;;;;;;6.60;2.60;;;20.40;99.90;;;;;;5074134;28;20576;-75
2023/08/24 07:38:31;;;;;;;6.07;3.00;;;20.40;99.90;;;;;;5040908;28;20164;-74
2023/08/24 07:40:57;;;;;;;5.07;2.80;;;20.50;99.90;;;;;;5067900;28;20121;-76
2023/08/24 07:43:23;;;;;;;6.93;3.67;;;20.60;99.90;;;;;;5072743;28;20503;-76
2023/08/24 07:45:49;;;;;;;8.80;3.60;;;20.60;99.90;;;;;;5072604;28;20051;-75
2023/08/24 07:48:15;;;;;;;6.18;3.30;;;20.70;99.90;;;;;;5070489;28;20044;-75
2023/08/24 07:50:41;;;;;;;6.18;3.33;;;20.70;99.90;;;;;;5071235;28;20044;-76
2023/08/24 07:53:06;;;;;;;7.43;3.78;;;20.90;99.90;;;;;;5072216;28;20393;-76
2023/08/24 07:55:32;;;;;;;8.25;4.78;;;21.00;99.90;;;;;;5072354;28;20043;-76
2023/08/24 07:57:57;;;;;;;7.60;4.30;;;21.10;99.90;;;;;;5071850;28;20090;-76
2023/08/24 08:00:24;;;;;;;7.50;4.15;;;21.20;99.90;;;;;;5071841;28;20415;-77
2023/08/24 08:02:51;;;;;;;7.45;3.97;;;21.30;99.90;;;;;;5073152;28;20449;-76
2023/08/24 08:05:17;;;;;;;7.78;4.05;;;21.40;99.90;;;;;;5056593;28;20036;-75
2023/08/24 08:07:42;;;;;;;8.80;4.10;;;21.50;99.90;;;;;;5056271;28;20524;-75
2023/08/24 08:10:08;;;;;;;8.25;4.00;;;21.50;99.90;;;;;;5072413;28;20032;-77
2023/08/24 08:12:35;;;;;;;7.35;3.92;;;21.50;99.90;;;;;;5072018;28;20692;-75
2023/08/24 08:15:00;;;;;;;7.68;4.32;;;21.60;99.90;;;;;;5072873;28;20111;-75
2023/08/24 08:17:27;;;;;;;7.97;3.97;;;21.70;99.90;;;;;;5071663;28;20115;-75
2023/08/24 08:19:59;;;;;;;5.97;4.10;;;21.80;99.90;;;;;;5072970;28;20387;-76
2023/08/24 08:22:25;;;;;;;10.73;4.60;;;21.90;99.90;;;;;;5070492;28;20445;-75
2023/08/24 08:24:53;;;;;;;8.23;4.10;;;22.00;99.90;;;;;;5072777;28;20036;-77
2023/08/24 08:27:19;;;;;;;9.43;4.50;;;22.10;99.90;;;;;;5097087;28;20044;-75
2023/08/24 08:29:45;;;;;;;10.18;4.50;;;22.20;99.90;;;;;;5072886;28;20412;-76
2023/08/24 08:32:12;;;;;;;7.20;4.28;;;22.30;99.90;;;;;;5072640;28;20620;-76
2023/08/24 08:34:38;;;;;;;9.95;5.35;;;22.40;99.90;;;;;;5072901;28;20047;-76
2023/08/24 08:37:03;;;;;;;8.48;4.55;;;22.40;99.90;;;;;;5056487;28;20107;-76
2023/08/24 08:39:29;;;;;;;8.52;4.30;;;22.50;99.90;;;;;;5056704;28;20085;-76
2023/08/24 08:41:55;;;;;;;10.23;4.40;;;22.60;99.90;;;;;;5055863;28;20039;-76
2023/08/24 08:44:22;;;;;;;11.10;4.32;;;22.60;99.90;;;;;;5073071;28;20040;-76
2023/08/24 08:46:50;;;;;;;8.40;4.30;;;22.70;99.90;;;;;;5072744;28;20052;-76
2023/08/24 08:49:17;;;;;;;6.68;4.32;;;22.80;99.90;;;;;;5056248;28;20499;-76
2023/08/24 08:51:43;;;;;;;5.97;4.00;;;22.80;99.90;;;;;;5072955;28;20094;-75
2023/08/24 08:54:08;;;;;;;6.07;4.28;;;23.00;99.90;;;;;;5056271;28;20461;-77
2023/08/24 08:56:35;;;;;;;6.45;4.00;;;23.10;99.90;;;;;;5072518;28;20044;-75
2023/08/24 08:59:01;;;;;;;8.20;4.45;;;23.20;99.90;;;;;;5073289;28;20349;-76
2023/08/24 09:01:27;;;;;;;7.10;4.18;;;23.30;99.90;;;;;;5087310;28;20139;-76
2023/08/24 09:03:54;;;;;;;9.23;4.30;;;23.30;99.90;;;;;;5052968;28;20044;-77
2023/08/24 09:06:20;;;;;;;9.05;4.82;;;23.30;99.90;;;;;;5072699;28;20048;-76
2023/08/24 09:08:47;;;;;;;7.63;4.80;;;23.20;99.90;;;;;;5069830;28;20485;-76
2023/08/24 09:11:14;;;;;;;9.27;4.65;;;23.10;99.90;;;;;;5070152;28;20085;-76
2023/08/24 09:13:39;;;;;;;5.75;3.83;;;23.10;99.90;;;;;;5067817;28;20044;-77
2023/08/24 09:16:06;;;;;;;8.27;4.03;;;23.00;99.90;;;;;;5064659;28;20048;-76
2023/08/24 09:18:37;;;;;;;6.38;4.13;;;22.90;99.90;;;;;;5051639;28;20054;-76
2023/08/24 09:21:10;;;;;;;7.05;3.72;;;22.90;99.90;;;;;;5067721;28;20425;-76
2023/08/24 09:23:37;;;;;;;7.95;3.95;;;22.90;99.90;;;;;;5071508;28;20044;-77
2023/08/24 09:26:04;;;;;;;10.73;4.65;;;22.90;99.90;;;;;;5071205;28;20122;-76
2023/08/24 09:28:30;;;;;;;7.93;3.80;;;22.90;99.90;;;;;;5053791;28;20042;-76
2023/08/24 09:30:56;;;;;;;7.40;3.97;;;22.90;99.90;;;;;;5063101;28;20464;-76
2023/08/24 09:33:23;;;;;;;8.00;3.75;;;22.90;99.90;;;;;;5071201;28;20039;-76
2023/08/24 09:35:53;;;;;;;8.60;3.83;;;22.90;99.90;;;;;;5051106;28;20032;-76
2023/08/24 09:38:21;;;;;;;8.13;4.38;;;22.90;99.90;;;;;;5071156;28;20032;-76
2023/08/24 09:40:51;;;;;;;7.55;4.22;;;22.90;99.90;;;;;;5067756;28;20040;-75
2023/08/24 09:43:17;;;;;;;9.60;3.83;;;23.00;99.90;;;;;;5070332;28;20040;-76
2023/08/24 09:45:56;;;;;;;9.57;4.55;;;23.00;99.90;;;;;;5071329;28;20371;-75
2023/08/24 09:48:23;;;;;;;8.38;4.43;;;22.90;99.90;;;;;;5069235;28;20045;-76
2023/08/24 09:50:51;;;;;;;12.75;4.80;;;22.90;99.90;;;;;;5050944;28;20032;-76
2023/08/24 09:53:18;;;;;;;8.73;5.32;;;22.90;99.90;;;;;;5070333;28;20036;-74
2023/08/24 09:55:50;;;;;;;8.73;5.57;;;22.90;99.90;;;;;;5068808;28;20043;-76
2023/08/24 09:58:18;;;;;;;8.45;4.88;;;22.80;99.90;;;;;;5072610;28;20032;-76
2023/08/24 10:00:46;;;;;;;10.73;4.97;;;22.80;99.90;;;;;;5068356;28;20061;-76
2023/08/24 10:03:18;;;;;;;9.68;4.70;;;22.80;99.90;;;;;;5070033;28;20048;-76
2023/08/24 10:05:45;;;;;;;8.73;4.75;;;22.70;99.90;;;;;;5069987;28;20044;-76
2023/08/24 10:08:12;;;;;;;8.52;5.03;;;22.80;99.90;;;;;;5074479;28;20595;-75
2023/08/24 10:10:41;;;;;;;8.90;5.28;;;22.80;99.90;;;;;;5069261;28;20116;-76
2023/08/24 10:13:17;;;;;;;8.25;5.50;;;22.80;99.90;;;;;;5087884;28;20032;-76
2023/08/24 10:15:46;;;;;;;7.07;5.53;;;22.70;99.90;;;;;;5064732;28;20093;-76
2023/08/24 10:18:13;;;;;;;9.30;5.10;;;22.70;99.90;;;;;;5071559;28;20047;-76
2023/08/24 10:20:39;;;;;;;7.93;5.18;;;22.60;99.90;;;;;;5066460;28;20079;-75
2023/08/24 10:23:05;;;;;;;9.80;5.40;;;22.60;99.90;;;;;;5085186;28;20045;-75
2023/08/24 10:25:32;;;;;;;8.27;5.47;;;22.60;99.90;;;;;;5073275;28;20050;-76
2023/08/24 10:28:00;;;;;;;9.68;5.43;;;22.50;99.90;;;;;;5068765;28;20036;-76
2023/08/24 10:30:26;;;;;;;10.07;5.05;;;22.40;99.90;;;;;;5070692;28;20048;-75
2023/08/24 10:32:53;;;;;;;8.20;5.50;;;22.40;99.90;;;;;;5067262;28;20036;-76
2023/08/24 10:35:20;;;;;;;11.23;5.18;;;22.40;99.90;;;;;;5067553;28;20063;-75
2023/08/24 10:37:46;;;;;;;9.80;5.57;;;22.40;99.90;;;;;;5069149;28;20036;-76
2023/08/24 10:40:12;;;;;;;9.18;5.25;;;22.30;99.90;;;;;;5070605;28;20059;-76
2023/08/24 10:42:45;;;;;;;8.23;5.50;;;22.20;99.90;;;;;;5063743;28;20097;-75
2023/08/24 10:45:13;;;;;;;8.50;5.47;;;22.10;99.90;;;;;;5073168;28;20040;-76
2023/08/24 10:47:46;;;;;;;9.30;5.53;;;22.10;99.90;;;;;;5068858;28;20044;-76
2023/08/24 10:50:12;;;;;;;9.00;4.93;;;22.10;99.90;;;;;;5074363;28;20040;-76
2023/08/24 10:52:39;;;;;;;9.10;5.22;;;22.00;99.90;;;;;;5074532;28;20419;-76
2023/08/24 10:55:21;;;;;;;7.45;4.35;;;22.00;99.90;;;;;;5074263;28;20036;-76
2023/08/24 10:57:59;;;;;;;8.98;4.75;;;22.00;99.90;;;;;;5074073;28;20036;-75
2023/08/24 11:00:31;;;;;;;7.03;5.22;;;22.00;99.90;;;;;;5066235;28;20110;-76
2023/08/24 11:02:57;;;;;;;7.13;4.88;;;22.10;99.90;;;;;;5066615;28;20036;-77
2023/08/24 11:05:27;;;;;;;8.77;5.32;;;22.10;99.90;;;;;;5074848;28;20491;-76
2023/08/24 11:07:59;;;;;;;8.70;5.53;;;22.00;99.90;;;;;;5071608;28;20039;-76
2023/08/24 11:10:46;;;;;;;8.93;5.35;;;22.10;99.90;;;;;;5071073;28;20062;-76
2023/08/24 11:13:19;;;;;;;8.52;5.32;;;22.10;99.90;;;;;;5067936;28;20127;-76
2023/08/24 11:15:46;;;;;;;17.02;5.40;;;22.10;99.90;;;;;;5074334;28;20043;-76
2023/08/24 11:18:26;;;;;;;10.18;5.63;;;22.10;99.90;;;;;;5071502;28;20046;-76
2023/08/24 11:20:55;;;;;;;7.00;5.28;;;22.10;99.90;;;;;;5074393;28;20104;-76
2023/08/24 11:23:23;;;;;;;8.65;5.68;;;22.10;99.90;;;;;;5066155;28;20043;-76
2023/08/24 11:25:57;;;;;;;9.23;5.80;;;22.10;99.90;;;;;;5072213;28;20411;-76
2023/08/24 11:28:25;;;;;;;8.43;5.30;;;22.10;99.90;;;;;;5060514;28;20118;-77
2023/08/24 11:30:51;;;;;;;6.85;5.22;;;22.20;99.90;;;;;;5069505;28;20074;-77
2023/08/24 11:33:28;;;;;;;9.30;5.88;;;22.20;99.90;;;;;;5073007;28;20028;-77
2023/08/24 11:35:53;;;;;;;11.10;6.57;;;22.30;99.90;;;;;;5056551;28;20089;-76
2023/08/24 11:38:19;;;;;;;8.55;6.22;;;22.30;99.90;;;;;;5065578;28;20036;-76
2023/08/24 11:40:44;;;;;;;9.38;6.18;;;22.40;99.90;;;;;;5072965;28;20282;-77
2023/08/24 11:43:10;;;;;;;9.55;6.35;;;22.50;99.90;;;;;;5072042;28;20035;-77
2023/08/24 11:45:37;;;;;;;11.23;6.68;;;22.70;99.90;;;;;;5070691;28;20441;-77
2023/08/24 11:48:04;;;;;;;13.13;7.90;;;22.80;99.90;;;;;;5070834;28;20047;-77
2023/08/24 11:50:30;;;;;;;9.15;6.75;;;22.90;99.90;;;;;;5064388;28;20078;-77
2023/08/24 11:52:56;;;;;;;9.10;6.47;;;23.00;99.90;;;;;;5073238;28;20039;-76
2023/08/24 11:55:25;;;;;;;8.52;6.30;;;23.10;99.90;;;;;;5073209;28;20475;-76
2023/08/24 11:57:51;;;;;;;12.05;7.55;;;23.20;99.90;;;;;;5056594;28;20054;-76
2023/08/24 12:00:21;;;;;;;10.65;6.65;;;23.20;99.90;;;;;;5073122;28;20114;-76
2023/08/24 12:02:47;;;;;;;8.88;7.00;;;23.30;99.90;;;;;;5073596;28;20062;-76
2023/08/24 12:05:23;;;;;;;11.18;7.65;;;23.40;99.90;;;;;;5072613;28;20043;-76
2023/08/24 12:07:50;;;;;;;11.13;6.85;;;23.40;99.90;;;;;;5093229;28;20032;-76
2023/08/24 12:10:16;;;;;;;11.02;7.25;;;23.40;99.90;;;;;;5072220;28;20391;-76
2023/08/24 12:12:42;;;;;;;12.48;7.60;;;23.40;99.90;;;;;;5071857;28;20043;-76
2023/08/24 12:15:14;;;;;;;10.95;7.20;;;23.30;99.90;;;;;;5071026;28;20044;-76
2023/08/24 12:17:44;;;;;;;11.10;7.57;;;23.30;99.90;;;;;;5071115;28;20317;-76
2023/08/24 12:20:23;;;;;;;16.08;7.93;;;23.30;99.90;;;;;;5072028;28;20036;-76
2023/08/24 12:22:52;;;;;;;8.50;6.90;;;23.30;99.90;;;;;;5073204;28;20036;-75
2023/08/24 12:25:21;;;;;;;10.82;7.35;;;23.20;99.90;;;;;;5071929;28;20415;-76
2023/08/24 12:27:47;;;;;;;10.35;7.90;;;23.20;99.90;;;;;;5065708;28;20124;-76
2023/08/24 12:30:13;;;;;;;16.30;8.00;;;23.20;99.90;;;;;;5072851;28;20195;-75
2023/08/24 12:32:44;;;;;;;9.82;7.18;;;23.20;99.90;;;;;;5072769;28;20127;-76
2023/08/24 12:35:09;;;;;;;9.93;7.22;;;23.20;99.90;;;;;;5054259;28;20078;-76
2023/08/24 12:37:36;;;;;;;9.68;7.75;;;23.20;99.90;;;;;;5072504;28;20036;-76
2023/08/24 12:40:04;;;;;;;9.80;7.30;;;23.20;99.90;;;;;;5072784;28;20040;-75
2023/08/24 12:42:30;;;;;;;9.90;7.38;;;23.20;99.90;;;;;;5071820;28;20092;-75
2023/08/24 12:44:55;;;;;;;10.90;7.60;;;23.30;99.90;;;;;;5072728;28;20043;-76